sensor_id;sensor_type;location;lat;lon;timestamp;P1;durP1;ratioP1;P2;durP2;ratioP2
53718;SDS011;39616;48.872;9.390;2023-03-24T00:02:14;0.80;;;0.80;;
53718;SDS011;39616;48.872;9.390;2023-03-24T00:04:48;0.90;;;0.73;;
53718;SDS011;39616;48.872;9.390;2023-03-24T00:07:22;1.15;;;0.90;;
53718;SDS011;39616;48.872;9.390;2023-03-24T00:09:52;1.13;;;0.90;;
53718;SDS011;39616;48.872;9.390;2023-03-24T00:12:23;1.80;;;0.80;;
53718;SDS011;39616;48.872;9.390;2023-03-24T00:14:54;2.03;;;0.63;;
53718;SDS011;39616;48.872;9.390;2023-03-24T00:17:24;1.88;;;0.80;;
53718;SDS011;39616;48.872;9.390;2023-03-24T00:19:58;2.30;;;1.10;;
53718;SDS011;39616;48.872;9.390;2023-03-24T00:22:28;1.35;;;0.85;;
53718;SDS011;39616;48.872;9.390;2023-03-24T00:24:59;1.30;;;0.80;;
53718;SDS011;39616;48.872;9.390;2023-03-24T00:27:33;1.05;;;0.90;;
53718;SDS011;39616;48.872;9.390;2023-03-24T00:30:06;1.35;;;0.90;;
53718;SDS011;39616;48.872;9.390;2023-03-24T00:32:38;2.40;;;0.88;;
53718;SDS011;39616;48.872;9.390;2023-03-24T00:35:10;2.55;;;1.08;;
53718;SDS011;39616;48.872;9.390;2023-03-24T00:37:41;2.55;;;0.90;;
53718;SDS011;39616;48.872;9.390;2023-03-24T00:40:14;1.48;;;0.77;;
53718;SDS011;39616;48.872;9.390;2023-03-24T00:42:47;2.97;;;0.90;;
53718;SDS011;39616;48.872;9.390;2023-03-24T00:45:20;2.78;;;0.90;;
53718;SDS011;39616;48.872;9.390;2023-03-24T00:47:51;1.25;;;0.90;;
53718;SDS011;39616;48.872;9.390;2023-03-24T00:50:26;1.50;;;1.00;;
53718;SDS011;39616;48.872;9.390;2023-03-24T00:52:57;1.63;;;0.90;;
53718;SDS011;39616;48.872;9.390;2023-03-24T00:55:30;1.95;;;0.80;;
53718;SDS011;39616;48.872;9.390;2023-03-24T00:58:01;0.82;;;0.75;;
53718;SDS011;39616;48.872;9.390;2023-03-24T01:00:31;2.28;;;0.95;;
53718;SDS011;39616;48.872;9.390;2023-03-24T01:03:02;1.17;;;0.80;;
53718;SDS011;39616;48.872;9.390;2023-03-24T01:05:32;2.08;;;0.90;;
53718;SDS011;39616;48.872;9.390;2023-03-24T01:08:03;1.58;;;0.85;;
53718;SDS011;39616;48.872;9.390;2023-03-24T01:10:36;0.93;;;0.85;;
53718;SDS011;39616;48.872;9.390;2023-03-24T01:13:23;2.55;;;0.77;;
53718;SDS011;39616;48.872;9.390;2023-03-24T01:15:55;1.25;;;0.80;;
53718;SDS011;39616;48.872;9.390;2023-03-24T01:18:26;3.85;;;0.70;;
53718;SDS011;39616;48.872;9.390;2023-03-24T01:20:56;1.83;;;0.90;;
53718;SDS011;39616;48.872;9.390;2023-03-24T01:23:27;1.13;;;0.75;;
53718;SDS011;39616;48.872;9.390;2023-03-24T01:26:03;1.88;;;0.80;;
53718;SDS011;39616;48.872;9.390;2023-03-24T01:28:35;1.23;;;0.90;;
53718;SDS011;39616;48.872;9.390;2023-03-24T01:31:09;1.45;;;0.80;;
53718;SDS011;39616;48.872;9.390;2023-03-24T01:33:40;2.25;;;0.70;;
53718;SDS011;39616;48.872;9.390;2023-03-24T01:36:11;1.20;;;0.95;;
53718;SDS011;39616;48.872;9.390;2023-03-24T01:38:41;1.17;;;0.90;;
53718;SDS011;39616;48.872;9.390;2023-03-24T01:41:11;1.85;;;0.90;;
53718;SDS011;39616;48.872;9.390;2023-03-24T01:43:42;1.10;;;0.75;;
53718;SDS011;39616;48.872;9.390;2023-03-24T01:46:14;1.05;;;0.90;;
53718;SDS011;39616;48.872;9.390;2023-03-24T01:49:08;1.73;;;0.80;;
53718;SDS011;39616;48.872;9.390;2023-03-24T01:51:42;1.17;;;0.80;;
53718;SDS011;39616;48.872;9.390;2023-03-24T01:54:56;0.63;;;0.63;;
53718;SDS011;39616;48.872;9.390;2023-03-24T01:59:48;1.05;;;0.80;;
53718;SDS011;39616;48.872;9.390;2023-03-24T02:02:20;1.10;;;0.80;;
53718;SDS011;39616;48.872;9.390;2023-03-24T02:04:52;0.70;;;0.65;;
53718;SDS011;39616;48.872;9.390;2023-03-24T02:07:38;2.05;;;0.77;;
53718;SDS011;39616;48.872;9.390;2023-03-24T02:10:15;1.10;;;0.80;;
53718;SDS011;39616;48.872;9.390;2023-03-24T02:12:47;4.60;;;0.90;;
53718;SDS011;39616;48.872;9.390;2023-03-24T02:15:18;1.10;;;0.80;;
53718;SDS011;39616;48.872;9.390;2023-03-24T02:17:51;0.85;;;0.70;;
53718;SDS011;39616;48.872;9.390;2023-03-24T02:20:31;3.28;;;0.90;;
53718;SDS011;39616;48.872;9.390;2023-03-24T02:34:41;1.17;;;0.82;;
53718;SDS011;39616;48.872;9.390;2023-03-24T02:45:53;1.85;;;0.70;;
53718;SDS011;39616;48.872;9.390;2023-03-24T02:48:36;2.72;;;0.70;;
53718;SDS011;39616;48.872;9.390;2023-03-24T02:54:10;2.20;;;0.80;;
53718;SDS011;39616;48.872;9.390;2023-03-24T03:02:16;1.33;;;0.80;;
53718;SDS011;39616;48.872;9.390;2023-03-24T03:08:03;4.53;;;0.80;;
53718;SDS011;39616;48.872;9.390;2023-03-24T03:10:37;2.10;;;0.70;;
53718;SDS011;39616;48.872;9.390;2023-03-24T03:13:13;1.70;;;0.80;;
53718;SDS011;39616;48.872;9.390;2023-03-24T03:15:54;1.20;;;0.77;;
53718;SDS011;39616;48.872;9.390;2023-03-24T03:18:28;1.52;;;0.75;;
53718;SDS011;39616;48.872;9.390;2023-03-24T03:21:03;1.80;;;0.75;;
53718;SDS011;39616;48.872;9.390;2023-03-24T03:24:01;1.10;;;0.90;;
53718;SDS011;39616;48.872;9.390;2023-03-24T03:26:35;2.95;;;0.70;;
53718;SDS011;39616;48.872;9.390;2023-03-24T03:29:08;1.08;;;0.75;;
53718;SDS011;39616;48.872;9.390;2023-03-24T03:31:47;4.22;;;0.70;;
53718;SDS011;39616;48.872;9.390;2023-03-24T03:34:27;2.35;;;0.80;;
53718;SDS011;39616;48.872;9.390;2023-03-24T03:37:24;1.50;;;0.80;;
53718;SDS011;39616;48.872;9.390;2023-03-24T03:40:01;1.73;;;0.70;;
53718;SDS011;39616;48.872;9.390;2023-03-24T03:42:37;3.15;;;0.80;;
53718;SDS011;39616;48.872;9.390;2023-03-24T03:45:08;1.90;;;0.60;;
53718;SDS011;39616;48.872;9.390;2023-03-24T03:47:39;0.63;;;0.60;;
53718;SDS011;39616;48.872;9.390;2023-03-24T03:50:10;1.00;;;0.90;;
53718;SDS011;39616;48.872;9.390;2023-03-24T03:52:40;0.85;;;0.63;;
53718;SDS011;39616;48.872;9.390;2023-03-24T03:55:13;1.15;;;0.80;;
53718;SDS011;39616;48.872;9.390;2023-03-24T03:57:43;1.75;;;0.70;;
53718;SDS011;39616;48.872;9.390;2023-03-24T04:00:15;0.75;;;0.63;;
53718;SDS011;39616;48.872;9.390;2023-03-24T04:02:56;2.47;;;0.63;;
53718;SDS011;39616;48.872;9.390;2023-03-24T04:05:37;1.02;;;0.70;;
53718;SDS011;39616;48.872;9.390;2023-03-24T04:16:58;1.13;;;0.73;;
53718;SDS011;39616;48.872;9.390;2023-03-24T04:22:38;1.52;;;0.70;;
53718;SDS011;39616;48.872;9.390;2023-03-24T04:28:07;1.20;;;0.80;;
53718;SDS011;39616;48.872;9.390;2023-03-24T04:30:57;1.17;;;0.88;;
53718;SDS011;39616;48.872;9.390;2023-03-24T04:33:48;1.23;;;0.60;;
53718;SDS011;39616;48.872;9.390;2023-03-24T04:36:25;0.88;;;0.80;;
53718;SDS011;39616;48.872;9.390;2023-03-24T04:39:00;1.58;;;0.70;;
53718;SDS011;39616;48.872;9.390;2023-03-24T04:41:32;0.70;;;0.60;;
53718;SDS011;39616;48.872;9.390;2023-03-24T04:44:03;1.33;;;0.80;;
53718;SDS011;39616;48.872;9.390;2023-03-24T04:46:34;1.58;;;0.80;;
53718;SDS011;39616;48.872;9.390;2023-03-24T04:49:04;0.98;;;0.75;;
53718;SDS011;39616;48.872;9.390;2023-03-24T04:51:35;1.35;;;0.63;;
53718;SDS011;39616;48.872;9.390;2023-03-24T04:54:06;1.48;;;0.73;;
53718;SDS011;39616;48.872;9.390;2023-03-24T04:56:45;0.98;;;0.80;;
53718;SDS011;39616;48.872;9.390;2023-03-24T04:59:18;1.38;;;0.90;;
53718;SDS011;39616;48.872;9.390;2023-03-24T05:01:49;1.80;;;0.70;;
53718;SDS011;39616;48.872;9.390;2023-03-24T05:04:20;1.92;;;0.90;;
53718;SDS011;39616;48.872;9.390;2023-03-24T05:06:53;1.02;;;0.68;;
53718;SDS011;39616;48.872;9.390;2023-03-24T05:09:24;1.17;;;0.70;;
53718;SDS011;39616;48.872;9.390;2023-03-24T05:11:54;1.20;;;0.70;;
53718;SDS011;39616;48.872;9.390;2023-03-24T05:14:25;0.70;;;0.70;;
53718;SDS011;39616;48.872;9.390;2023-03-24T05:16:55;0.95;;;0.60;;
53718;SDS011;39616;48.872;9.390;2023-03-24T05:19:25;1.33;;;0.70;;
53718;SDS011;39616;48.872;9.390;2023-03-24T05:21:56;1.35;;;0.70;;
53718;SDS011;39616;48.872;9.390;2023-03-24T05:24:26;0.95;;;0.60;;
53718;SDS011;39616;48.872;9.390;2023-03-24T05:26:56;1.40;;;0.60;;
53718;SDS011;39616;48.872;9.390;2023-03-24T05:29:27;0.75;;;0.63;;
53718;SDS011;39616;48.872;9.390;2023-03-24T05:31:57;2.22;;;0.77;;
53718;SDS011;39616;48.872;9.390;2023-03-24T05:34:27;1.70;;;0.60;;
53718;SDS011;39616;48.872;9.390;2023-03-24T05:36:58;2.85;;;0.82;;
53718;SDS011;39616;48.872;9.390;2023-03-24T05:39:28;1.75;;;0.60;;
53718;SDS011;39616;48.872;9.390;2023-03-24T05:41:58;1.13;;;0.80;;
53718;SDS011;39616;48.872;9.390;2023-03-24T05:44:28;1.95;;;1.20;;
53718;SDS011;39616;48.872;9.390;2023-03-24T05:46:59;1.95;;;0.88;;
53718;SDS011;39616;48.872;9.390;2023-03-24T05:49:30;1.27;;;0.90;;
53718;SDS011;39616;48.872;9.390;2023-03-24T05:52:00;3.22;;;1.10;;
53718;SDS011;39616;48.872;9.390;2023-03-24T05:54:31;1.33;;;0.98;;
53718;SDS011;39616;48.872;9.390;2023-03-24T05:57:03;1.40;;;1.10;;
53718;SDS011;39616;48.872;9.390;2023-03-24T05:59:33;1.48;;;1.08;;
53718;SDS011;39616;48.872;9.390;2023-03-24T06:02:04;3.85;;;1.00;;
53718;SDS011;39616;48.872;9.390;2023-03-24T06:04:35;3.75;;;1.20;;
53718;SDS011;39616;48.872;9.390;2023-03-24T06:07:05;1.33;;;1.20;;
53718;SDS011;39616;48.872;9.390;2023-03-24T06:09:35;3.33;;;1.33;;
53718;SDS011;39616;48.872;9.390;2023-03-24T06:12:05;2.13;;;1.27;;
53718;SDS011;39616;48.872;9.390;2023-03-24T06:14:36;4.03;;;1.30;;
53718;SDS011;39616;48.872;9.390;2023-03-24T06:17:07;2.15;;;1.35;;
53718;SDS011;39616;48.872;9.390;2023-03-24T06:19:37;3.58;;;1.20;;
53718;SDS011;39616;48.872;9.390;2023-03-24T06:22:09;2.65;;;1.20;;
53718;SDS011;39616;48.872;9.390;2023-03-24T06:24:40;2.17;;;1.30;;
53718;SDS011;39616;48.872;9.390;2023-03-24T06:27:11;2.08;;;1.30;;
53718;SDS011;39616;48.872;9.390;2023-03-24T06:29:43;3.58;;;1.13;;
53718;SDS011;39616;48.872;9.390;2023-03-24T06:32:13;2.50;;;1.50;;
53718;SDS011;39616;48.872;9.390;2023-03-24T06:34:43;3.38;;;1.30;;
53718;SDS011;39616;48.872;9.390;2023-03-24T06:37:14;3.08;;;1.52;;
53718;SDS011;39616;48.872;9.390;2023-03-24T06:39:44;3.03;;;1.40;;
53718;SDS011;39616;48.872;9.390;2023-03-24T06:42:15;6.03;;;1.50;;
53718;SDS011;39616;48.872;9.390;2023-03-24T06:44:45;2.47;;;1.40;;
53718;SDS011;39616;48.872;9.390;2023-03-24T06:47:15;2.00;;;1.13;;
53718;SDS011;39616;48.872;9.390;2023-03-24T06:49:46;2.58;;;1.20;;
53718;SDS011;39616;48.872;9.390;2023-03-24T06:52:16;2.80;;;1.30;;
53718;SDS011;39616;48.872;9.390;2023-03-24T06:54:46;1.83;;;1.20;;
53718;SDS011;39616;48.872;9.390;2023-03-24T06:57:17;2.10;;;1.05;;
53718;SDS011;39616;48.872;9.390;2023-03-24T06:59:47;3.25;;;1.27;;
53718;SDS011;39616;48.872;9.390;2023-03-24T07:02:17;2.03;;;1.30;;
53718;SDS011;39616;48.872;9.390;2023-03-24T07:04:47;3.72;;;1.13;;
53718;SDS011;39616;48.872;9.390;2023-03-24T07:07:19;3.95;;;1.10;;
53718;SDS011;39616;48.872;9.390;2023-03-24T07:09:51;1.73;;;1.40;;
53718;SDS011;39616;48.872;9.390;2023-03-24T07:12:21;1.23;;;1.00;;
53718;SDS011;39616;48.872;9.390;2023-03-24T07:14:52;1.77;;;1.10;;
53718;SDS011;39616;48.872;9.390;2023-03-24T07:17:22;2.72;;;1.20;;
53718;SDS011;39616;48.872;9.390;2023-03-24T07:19:52;1.67;;;1.20;;
53718;SDS011;39616;48.872;9.390;2023-03-24T07:22:22;2.67;;;1.10;;
53718;SDS011;39616;48.872;9.390;2023-03-24T07:24:53;1.75;;;1.10;;
53718;SDS011;39616;48.872;9.390;2023-03-24T07:27:25;2.03;;;1.10;;
53718;SDS011;39616;48.872;9.390;2023-03-24T07:29:55;2.55;;;1.25;;
53718;SDS011;39616;48.872;9.390;2023-03-24T07:32:28;4.63;;;1.40;;
53718;SDS011;39616;48.872;9.390;2023-03-24T07:34:59;2.78;;;1.40;;
53718;SDS011;39616;48.872;9.390;2023-03-24T07:37:30;1.30;;;1.00;;
53718;SDS011;39616;48.872;9.390;2023-03-24T07:40:01;1.83;;;1.23;;
53718;SDS011;39616;48.872;9.390;2023-03-24T07:42:34;1.40;;;1.30;;
53718;SDS011;39616;48.872;9.390;2023-03-24T07:45:06;1.40;;;1.27;;
53718;SDS011;39616;48.872;9.390;2023-03-24T07:47:38;3.30;;;1.58;;
53718;SDS011;39616;48.872;9.390;2023-03-24T07:50:09;2.55;;;1.30;;
53718;SDS011;39616;48.872;9.390;2023-03-24T07:52:40;5.55;;;1.55;;
53718;SDS011;39616;48.872;9.390;2023-03-24T07:55:12;2.85;;;1.52;;
53718;SDS011;39616;48.872;9.390;2023-03-24T07:57:45;2.75;;;1.50;;
53718;SDS011;39616;48.872;9.390;2023-03-24T08:00:16;7.45;;;1.48;;
53718;SDS011;39616;48.872;9.390;2023-03-24T08:02:49;4.82;;;1.23;;
53718;SDS011;39616;48.872;9.390;2023-03-24T08:05:21;2.53;;;1.60;;
53718;SDS011;39616;48.872;9.390;2023-03-24T08:07:52;1.90;;;1.42;;
53718;SDS011;39616;48.872;9.390;2023-03-24T08:10:29;2.33;;;1.30;;
53718;SDS011;39616;48.872;9.390;2023-03-24T08:12:59;1.77;;;1.30;;
53718;SDS011;39616;48.872;9.390;2023-03-24T08:15:30;3.58;;;1.55;;
53718;SDS011;39616;48.872;9.390;2023-03-24T08:18:00;2.92;;;1.40;;
53718;SDS011;39616;48.872;9.390;2023-03-24T08:20:31;5.03;;;1.50;;
53718;SDS011;39616;48.872;9.390;2023-03-24T08:23:01;1.65;;;1.33;;
53718;SDS011;39616;48.872;9.390;2023-03-24T08:25:33;2.63;;;1.45;;
53718;SDS011;39616;48.872;9.390;2023-03-24T08:28:05;2.30;;;1.25;;
53718;SDS011;39616;48.872;9.390;2023-03-24T08:30:35;2.50;;;1.20;;
53718;SDS011;39616;48.872;9.390;2023-03-24T08:33:06;2.65;;;1.77;;
53718;SDS011;39616;48.872;9.390;2023-03-24T08:35:36;5.30;;;1.70;;
53718;SDS011;39616;48.872;9.390;2023-03-24T08:38:09;2.97;;;1.60;;
53718;SDS011;39616;48.872;9.390;2023-03-24T08:40:41;3.15;;;1.65;;
53718;SDS011;39616;48.872;9.390;2023-03-24T08:43:12;4.55;;;1.88;;
53718;SDS011;39616;48.872;9.390;2023-03-24T08:45:43;2.03;;;1.50;;
53718;SDS011;39616;48.872;9.390;2023-03-24T08:48:14;1.40;;;1.20;;
53718;SDS011;39616;48.872;9.390;2023-03-24T08:50:44;3.08;;;1.30;;
53718;SDS011;39616;48.872;9.390;2023-03-24T08:53:15;1.60;;;1.42;;
53718;SDS011;39616;48.872;9.390;2023-03-24T08:55:45;3.35;;;1.30;;
53718;SDS011;39616;48.872;9.390;2023-03-24T08:58:16;1.63;;;1.30;;
53718;SDS011;39616;48.872;9.390;2023-03-24T09:00:48;3.28;;;1.52;;
53718;SDS011;39616;48.872;9.390;2023-03-24T09:03:19;3.00;;;1.33;;
53718;SDS011;39616;48.872;9.390;2023-03-24T09:05:53;1.70;;;1.60;;
53718;SDS011;39616;48.872;9.390;2023-03-24T09:08:26;2.88;;;1.48;;
53718;SDS011;39616;48.872;9.390;2023-03-24T09:10:56;2.08;;;1.10;;
53718;SDS011;39616;48.872;9.390;2023-03-24T09:13:27;1.45;;;1.35;;
53718;SDS011;39616;48.872;9.390;2023-03-24T09:15:58;1.75;;;1.40;;
53718;SDS011;39616;48.872;9.390;2023-03-24T09:18:30;1.90;;;1.10;;
53718;SDS011;39616;48.872;9.390;2023-03-24T09:21:00;2.85;;;1.48;;
53718;SDS011;39616;48.872;9.390;2023-03-24T09:23:31;2.45;;;1.20;;
53718;SDS011;39616;48.872;9.390;2023-03-24T09:26:02;1.27;;;1.17;;
53718;SDS011;39616;48.872;9.390;2023-03-24T09:28:33;2.40;;;1.10;;
53718;SDS011;39616;48.872;9.390;2023-03-24T09:31:04;3.53;;;1.30;;
53718;SDS011;39616;48.872;9.390;2023-03-24T09:33:35;1.25;;;1.05;;
53718;SDS011;39616;48.872;9.390;2023-03-24T09:36:05;3.53;;;1.33;;
53718;SDS011;39616;48.872;9.390;2023-03-24T09:38:36;1.92;;;1.23;;
53718;SDS011;39616;48.872;9.390;2023-03-24T09:41:14;2.85;;;1.40;;
53718;SDS011;39616;48.872;9.390;2023-03-24T09:43:58;4.15;;;1.50;;
53718;SDS011;39616;48.872;9.390;2023-03-24T09:46:34;1.25;;;0.88;;
53718;SDS011;39616;48.872;9.390;2023-03-24T09:49:10;1.20;;;1.10;;
53718;SDS011;39616;48.872;9.390;2023-03-24T09:51:43;2.00;;;1.10;;
53718;SDS011;39616;48.872;9.390;2023-03-24T09:54:25;1.58;;;1.00;;
53718;SDS011;39616;48.872;9.390;2023-03-24T09:57:04;1.60;;;1.10;;
53718;SDS011;39616;48.872;9.390;2023-03-24T09:59:48;1.75;;;0.93;;
53718;SDS011;39616;48.872;9.390;2023-03-24T10:02:19;1.13;;;0.93;;
53718;SDS011;39616;48.872;9.390;2023-03-24T10:04:50;1.58;;;1.02;;
53718;SDS011;39616;48.872;9.390;2023-03-24T10:07:25;1.45;;;0.85;;
53718;SDS011;39616;48.872;9.390;2023-03-24T10:10:01;2.10;;;1.05;;
53718;SDS011;39616;48.872;9.390;2023-03-24T10:17:51;0.93;;;0.90;;
53718;SDS011;39616;48.872;9.390;2023-03-24T10:20:32;4.63;;;0.90;;
53718;SDS011;39616;48.872;9.390;2023-03-24T10:23:11;1.10;;;0.88;;
53718;SDS011;39616;48.872;9.390;2023-03-24T10:26:15;1.67;;;0.85;;
53718;SDS011;39616;48.872;9.390;2023-03-24T10:29:02;2.55;;;0.80;;
53718;SDS011;39616;48.872;9.390;2023-03-24T10:31:46;1.30;;;0.80;;
53718;SDS011;39616;48.872;9.390;2023-03-24T10:34:21;3.08;;;1.02;;
53718;SDS011;39616;48.872;9.390;2023-03-24T10:36:56;2.38;;;0.70;;
53718;SDS011;39616;48.872;9.390;2023-03-24T10:39:29;2.50;;;0.90;;
53718;SDS011;39616;48.872;9.390;2023-03-24T10:42:00;0.98;;;0.77;;
53718;SDS011;39616;48.872;9.390;2023-03-24T10:44:31;0.70;;;0.70;;
53718;SDS011;39616;48.872;9.390;2023-03-24T10:47:02;0.80;;;0.80;;
53718;SDS011;39616;48.872;9.390;2023-03-24T10:49:33;1.35;;;0.80;;
53718;SDS011;39616;48.872;9.390;2023-03-24T10:52:08;2.20;;;0.70;;
53718;SDS011;39616;48.872;9.390;2023-03-24T10:54:39;0.87;;;0.60;;
53718;SDS011;39616;48.872;9.390;2023-03-24T10:57:27;0.80;;;0.70;;
53718;SDS011;39616;48.872;9.390;2023-03-24T11:00:00;0.60;;;0.52;;
53718;SDS011;39616;48.872;9.390;2023-03-24T11:02:54;1.35;;;0.63;;
53718;SDS011;39616;48.872;9.390;2023-03-24T11:05:26;0.80;;;0.60;;
53718;SDS011;39616;48.872;9.390;2023-03-24T11:11:00;1.17;;;0.68;;
53718;SDS011;39616;48.872;9.390;2023-03-24T11:13:53;0.52;;;0.50;;
53718;SDS011;39616;48.872;9.390;2023-03-24T11:16:28;0.60;;;0.60;;
53718;SDS011;39616;48.872;9.390;2023-03-24T11:19:16;0.88;;;0.57;;
53718;SDS011;39616;48.872;9.390;2023-03-24T11:21:51;1.50;;;0.40;;
53718;SDS011;39616;48.872;9.390;2023-03-24T11:24:30;0.60;;;0.60;;
53718;SDS011;39616;48.872;9.390;2023-03-24T11:27:05;0.40;;;0.40;;
53718;SDS011;39616;48.872;9.390;2023-03-24T11:29:37;0.40;;;0.40;;
53718;SDS011;39616;48.872;9.390;2023-03-24T11:32:17;0.90;;;0.50;;
53718;SDS011;39616;48.872;9.390;2023-03-24T11:34:56;0.70;;;0.40;;
53718;SDS011;39616;48.872;9.390;2023-03-24T11:37:37;2.15;;;0.50;;
53718;SDS011;39616;48.872;9.390;2023-03-24T11:40:23;0.80;;;0.60;;
53718;SDS011;39616;48.872;9.390;2023-03-24T11:42:58;0.43;;;0.40;;
53718;SDS011;39616;48.872;9.390;2023-03-24T11:45:39;0.47;;;0.40;;
53718;SDS011;39616;48.872;9.390;2023-03-24T11:48:24;0.85;;;0.40;;
53718;SDS011;39616;48.872;9.390;2023-03-24T11:51:01;0.95;;;0.50;;
53718;SDS011;39616;48.872;9.390;2023-03-24T11:53:44;1.67;;;0.40;;
53718;SDS011;39616;48.872;9.390;2023-03-24T11:58:49;1.55;;;0.32;;
53718;SDS011;39616;48.872;9.390;2023-03-24T12:01:28;0.40;;;0.40;;
53718;SDS011;39616;48.872;9.390;2023-03-24T12:09:45;0.32;;;0.30;;
53718;SDS011;39616;48.872;9.390;2023-03-24T12:24:33;1.10;;;0.22;;
53718;SDS011;39616;48.872;9.390;2023-03-24T12:30:26;0.20;;;0.20;;
53718;SDS011;39616;48.872;9.390;2023-03-24T12:33:17;0.20;;;0.20;;
53718;SDS011;39616;48.872;9.390;2023-03-24T12:38:53;0.40;;;0.30;;
53718;SDS011;39616;48.872;9.390;2023-03-24T12:44:57;0.30;;;0.30;;
53718;SDS011;39616;48.872;9.390;2023-03-24T12:47:20;0.30;;;0.20;;
53718;SDS011;39616;48.872;9.390;2023-03-24T12:50:10;1.85;;;0.30;;
53718;SDS011;39616;48.872;9.390;2023-03-24T12:56:07;0.20;;;0.20;;
53718;SDS011;39616;48.872;9.390;2023-03-24T12:58:47;1.83;;;0.28;;
53718;SDS011;39616;48.872;9.390;2023-03-24T13:01:22;0.68;;;0.40;;
53718;SDS011;39616;48.872;9.390;2023-03-24T13:06:52;0.20;;;0.20;;
53718;SDS011;39616;48.872;9.390;2023-03-24T13:09:32;0.30;;;0.20;;
53718;SDS011;39616;48.872;9.390;2023-03-24T13:17:28;0.22;;;0.22;;
53718;SDS011;39616;48.872;9.390;2023-03-24T13:20:02;0.30;;;0.30;;
53718;SDS011;39616;48.872;9.390;2023-03-24T13:22:37;1.05;;;0.20;;
53718;SDS011;39616;48.872;9.390;2023-03-24T13:25:11;1.65;;;0.30;;
53718;SDS011;39616;48.872;9.390;2023-03-24T13:27:54;0.93;;;0.20;;
53718;SDS011;39616;48.872;9.390;2023-03-24T13:30:31;0.68;;;0.28;;
53718;SDS011;39616;48.872;9.390;2023-03-24T13:33:27;0.60;;;0.20;;
53718;SDS011;39616;48.872;9.390;2023-03-24T13:38:50;2.42;;;0.30;;
53718;SDS011;39616;48.872;9.390;2023-03-24T13:41:24;1.38;;;0.68;;
53718;SDS011;39616;48.872;9.390;2023-03-24T13:43:57;0.50;;;0.30;;
53718;SDS011;39616;48.872;9.390;2023-03-24T13:47:07;5.43;;;0.80;;
53718;SDS011;39616;48.872;9.390;2023-03-24T13:49:54;1.05;;;0.50;;
53718;SDS011;39616;48.872;9.390;2023-03-24T13:55:09;2.45;;;0.40;;
53718;SDS011;39616;48.872;9.390;2023-03-24T13:57:50;4.97;;;0.60;;
53718;SDS011;39616;48.872;9.390;2023-03-24T14:00:25;0.65;;;0.40;;
53718;SDS011;39616;48.872;9.390;2023-03-24T14:03:12;2.80;;;0.50;;
53718;SDS011;39616;48.872;9.390;2023-03-24T14:05:56;2.95;;;0.47;;
53718;SDS011;39616;48.872;9.390;2023-03-24T14:08:33;3.25;;;0.68;;
53718;SDS011;39616;48.872;9.390;2023-03-24T14:19:41;0.70;;;0.50;;
53718;SDS011;39616;48.872;9.390;2023-03-24T14:22:33;1.58;;;0.50;;
53718;SDS011;39616;48.872;9.390;2023-03-24T14:25:16;1.73;;;0.50;;
53718;SDS011;39616;48.872;9.390;2023-03-24T14:30:37;1.85;;;0.65;;
53718;SDS011;39616;48.872;9.390;2023-03-24T14:33:29;1.23;;;0.40;;
53718;SDS011;39616;48.872;9.390;2023-03-24T14:36:03;0.60;;;0.40;;
53718;SDS011;39616;48.872;9.390;2023-03-24T14:38:35;0.77;;;0.40;;
53718;SDS011;39616;48.872;9.390;2023-03-24T14:41:14;1.52;;;0.30;;
53718;SDS011;39616;48.872;9.390;2023-03-24T14:51:42;1.95;;;0.40;;
53718;SDS011;39616;48.872;9.390;2023-03-24T14:54:27;0.63;;;0.40;;
53718;SDS011;39616;48.872;9.390;2023-03-24T14:57:02;1.67;;;0.50;;
53718;SDS011;39616;48.872;9.390;2023-03-24T14:59:45;2.72;;;0.50;;
53718;SDS011;39616;48.872;9.390;2023-03-24T15:02:33;2.80;;;0.60;;
53718;SDS011;39616;48.872;9.390;2023-03-24T15:07:43;1.33;;;0.60;;
53718;SDS011;39616;48.872;9.390;2023-03-24T15:10:16;2.92;;;0.50;;
53718;SDS011;39616;48.872;9.390;2023-03-24T15:12:47;6.38;;;0.70;;
53718;SDS011;39616;48.872;9.390;2023-03-24T15:15:21;2.95;;;0.60;;
53718;SDS011;39616;48.872;9.390;2023-03-24T15:17:52;3.20;;;0.60;;
53718;SDS011;39616;48.872;9.390;2023-03-24T15:20:24;1.15;;;0.40;;
53718;SDS011;39616;48.872;9.390;2023-03-24T15:23:07;1.30;;;0.60;;
53718;SDS011;39616;48.872;9.390;2023-03-24T15:25:45;1.00;;;0.40;;
53718;SDS011;39616;48.872;9.390;2023-03-24T15:28:25;0.68;;;0.40;;
53718;SDS011;39616;48.872;9.390;2023-03-24T15:30:57;1.13;;;0.52;;
53718;SDS011;39616;48.872;9.390;2023-03-24T15:33:28;0.82;;;0.50;;
53718;SDS011;39616;48.872;9.390;2023-03-24T15:36:00;1.45;;;0.40;;
53718;SDS011;39616;48.872;9.390;2023-03-24T15:38:31;0.63;;;0.43;;
53718;SDS011;39616;48.872;9.390;2023-03-24T15:41:03;2.20;;;0.45;;
53718;SDS011;39616;48.872;9.390;2023-03-24T15:43:44;1.48;;;0.40;;
53718;SDS011;39616;48.872;9.390;2023-03-24T15:46:28;3.13;;;0.40;;
53718;SDS011;39616;48.872;9.390;2023-03-24T15:48:59;0.70;;;0.32;;
53718;SDS011;39616;48.872;9.390;2023-03-24T15:51:49;1.98;;;0.50;;
53718;SDS011;39616;48.872;9.390;2023-03-24T15:54:21;1.02;;;0.40;;
53718;SDS011;39616;48.872;9.390;2023-03-24T16:02:34;3.20;;;0.50;;
53718;SDS011;39616;48.872;9.390;2023-03-24T16:05:16;0.80;;;0.60;;
53718;SDS011;39616;48.872;9.390;2023-03-24T16:07:53;0.50;;;0.40;;
53718;SDS011;39616;48.872;9.390;2023-03-24T16:10:37;0.50;;;0.32;;
53718;SDS011;39616;48.872;9.390;2023-03-24T16:13:15;0.47;;;0.45;;
53718;SDS011;39616;48.872;9.390;2023-03-24T16:18:32;1.40;;;0.47;;
53718;SDS011;39616;48.872;9.390;2023-03-24T16:21:18;1.08;;;0.57;;
53718;SDS011;39616;48.872;9.390;2023-03-24T16:23:54;0.50;;;0.50;;
53718;SDS011;39616;48.872;9.390;2023-03-24T16:26:29;0.90;;;0.57;;
53718;SDS011;39616;48.872;9.390;2023-03-24T16:29:14;1.92;;;0.50;;
53718;SDS011;39616;48.872;9.390;2023-03-24T16:31:51;0.75;;;0.55;;
53718;SDS011;39616;48.872;9.390;2023-03-24T16:34:24;1.50;;;0.50;;
53718;SDS011;39616;48.872;9.390;2023-03-24T16:36:54;0.60;;;0.43;;
53718;SDS011;39616;48.872;9.390;2023-03-24T16:39:26;1.55;;;0.40;;
53718;SDS011;39616;48.872;9.390;2023-03-24T16:41:58;1.05;;;0.40;;
53718;SDS011;39616;48.872;9.390;2023-03-24T16:44:28;2.65;;;0.40;;
53718;SDS011;39616;48.872;9.390;2023-03-24T16:46:58;0.40;;;0.40;;
53718;SDS011;39616;48.872;9.390;2023-03-24T16:49:29;1.38;;;0.40;;
53718;SDS011;39616;48.872;9.390;2023-03-24T16:51:59;0.40;;;0.40;;
53718;SDS011;39616;48.872;9.390;2023-03-24T16:54:30;0.32;;;0.32;;
53718;SDS011;39616;48.872;9.390;2023-03-24T16:57:02;0.98;;;0.32;;
53718;SDS011;39616;48.872;9.390;2023-03-24T16:59:33;0.55;;;0.40;;
53718;SDS011;39616;48.872;9.390;2023-03-24T17:02:03;0.45;;;0.40;;
53718;SDS011;39616;48.872;9.390;2023-03-24T17:04:34;0.40;;;0.40;;
53718;SDS011;39616;48.872;9.390;2023-03-24T17:07:05;2.15;;;0.50;;
53718;SDS011;39616;48.872;9.390;2023-03-24T17:09:35;0.40;;;0.35;;
53718;SDS011;39616;48.872;9.390;2023-03-24T17:12:07;2.30;;;0.47;;
53718;SDS011;39616;48.872;9.390;2023-03-24T17:14:38;0.43;;;0.43;;
53718;SDS011;39616;48.872;9.390;2023-03-24T17:17:10;0.82;;;0.30;;
53718;SDS011;39616;48.872;9.390;2023-03-24T17:19:41;1.00;;;0.40;;
53718;SDS011;39616;48.872;9.390;2023-03-24T17:22:12;0.52;;;0.40;;
53718;SDS011;39616;48.872;9.390;2023-03-24T17:24:46;0.73;;;0.40;;
53718;SDS011;39616;48.872;9.390;2023-03-24T17:27:17;0.50;;;0.40;;
53718;SDS011;39616;48.872;9.390;2023-03-24T17:29:50;0.50;;;0.50;;
53718;SDS011;39616;48.872;9.390;2023-03-24T17:32:20;1.20;;;0.40;;
53718;SDS011;39616;48.872;9.390;2023-03-24T17:34:58;0.68;;;0.60;;
53718;SDS011;39616;48.872;9.390;2023-03-24T17:37:30;0.55;;;0.50;;
53718;SDS011;39616;48.872;9.390;2023-03-24T17:40:01;0.70;;;0.40;;
53718;SDS011;39616;48.872;9.390;2023-03-24T17:42:35;0.60;;;0.57;;
53718;SDS011;39616;48.872;9.390;2023-03-24T17:45:08;1.25;;;0.60;;
53718;SDS011;39616;48.872;9.390;2023-03-24T17:47:41;0.55;;;0.50;;